createdAt,value
2018-10-01T00:00:15.381Z,1006.64
2018-10-01T00:01:15.398Z,1006.65
2018-10-01T00:02:15.417Z,1006.64
2018-10-01T00:03:15.486Z,1006.62
2018-10-01T00:04:15.549Z,1006.59
2018-10-01T00:05:15.467Z,1006.62
2018-10-01T00:06:15.484Z,1006.59
2018-10-01T00:07:15.502Z,1006.58
2018-10-01T00:08:15.519Z,1006.56
2018-10-01T00:09:15.538Z,1006.53
2018-10-01T00:10:15.553Z,1006.55
2018-10-01T00:12:15.593Z,1006.51
2018-10-01T00:13:15.604Z,1006.53
2018-10-01T00:14:15.622Z,1006.55
2018-10-01T00:15:15.642Z,1006.52
2018-10-01T00:16:15.656Z,1006.52
2018-10-01T00:17:15.673Z,1006.48
2018-10-01T00:18:15.691Z,1006.52
2018-10-01T00:19:15.707Z,1006.46
2018-10-01T00:20:15.731Z,1006.44
2018-10-01T00:21:15.743Z,1006.44
2018-10-01T00:22:15.760Z,1006.45
2018-10-01T00:23:15.778Z,1006.48
2018-10-01T00:24:15.794Z,1006.45
2018-10-01T00:25:15.812Z,1006.42
2018-10-01T00:26:15.830Z,1006.42
2018-10-01T00:28:15.862Z,1006.42
2018-10-01T00:29:15.881Z,1006.44
2018-10-01T00:30:15.898Z,1006.42
2018-10-01T00:31:15.914Z,1006.41
2018-10-01T00:32:15.935Z,1006.4
2018-10-01T00:33:15.949Z,1006.38
2018-10-01T00:34:15.968Z,1006.38
2018-10-01T00:35:15.983Z,1006.36
2018-10-01T00:36:16.006Z,1006.35
2018-10-01T00:37:16.018Z,1006.38
2018-10-01T00:38:16.088Z,1006.35
2018-10-01T00:39:16.052Z,1006.37
2018-10-01T00:40:16.077Z,1006.35
2018-10-01T00:41:16.090Z,1006.33
2018-10-01T00:42:16.120Z,1006.32
2018-10-01T00:44:16.138Z,1006.33
2018-10-01T00:45:16.155Z,1006.31
2018-10-01T00:46:16.171Z,1006.32
2018-10-01T00:47:16.191Z,1006.32
2018-10-01T00:48:16.207Z,1006.35
2018-10-01T00:49:16.223Z,1006.32
2018-10-01T00:50:16.241Z,1006.29
2018-10-01T00:51:16.257Z,1006.29
2018-10-01T00:52:16.276Z,1006.28
2018-10-01T00:53:16.291Z,1006.27
2018-10-01T00:54:16.309Z,1006.23
2018-10-01T00:55:16.328Z,1006.24
2018-10-01T00:56:16.344Z,1006.22
2018-10-01T00:57:16.361Z,1006.21
2018-10-01T00:59:16.396Z,1006.23
2018-10-01T01:00:16.418Z,1006.2
2018-10-01T01:01:16.430Z,1006.19
2018-10-01T01:02:16.446Z,1006.19
2018-10-01T01:03:16.463Z,1006.21
2018-10-01T01:04:16.482Z,1006.22
2018-10-01T01:05:16.500Z,1006.23
2018-10-01T01:06:16.519Z,1006.22
2018-10-01T01:07:16.534Z,1006.22
2018-10-01T01:08:16.548Z,1006.22
2018-10-01T01:09:16.567Z,1006.21
2018-10-01T01:10:16.585Z,1006.24
2018-10-01T01:11:16.599Z,1006.21
2018-10-01T01:12:16.616Z,1006.19
2018-10-01T01:13:16.635Z,1006.19
2018-10-01T01:14:16.651Z,1006.2
2018-10-01T01:15:16.667Z,1006.17
2018-10-01T01:16:16.684Z,1006.15
2018-10-01T01:17:16.701Z,1006.2
2018-10-01T01:18:16.717Z,1006.16
2018-10-01T01:19:16.735Z,1006.21
2018-10-01T01:20:16.752Z,1006.16
2018-10-01T01:21:16.769Z,1006.16
2018-10-01T01:22:16.785Z,1006.16
2018-10-01T01:23:16.802Z,1006.17
2018-10-01T01:24:16.827Z,1006.19
2018-10-01T01:25:16.836Z,1006.14
2018-10-01T01:26:16.852Z,1006.15
2018-10-01T01:27:16.870Z,1006.12
2018-10-01T01:28:16.887Z,1006.18
2018-10-01T01:29:16.903Z,1006.25
2018-10-01T01:31:16.937Z,1006.3
2018-10-01T01:32:16.954Z,1006.29
2018-10-01T01:33:16.970Z,1006.22
2018-10-01T01:34:16.987Z,1006.27
2018-10-01T01:35:17.008Z,1006.24
2018-10-01T01:36:17.023Z,1006.22
2018-10-01T01:37:17.037Z,1006.21
2018-10-01T01:38:17.062Z,1006.17
2018-10-01T01:39:17.073Z,1006.21
2018-10-01T01:40:17.088Z,1006.19
2018-10-01T01:41:17.104Z,1006.18
2018-10-01T01:42:17.121Z,1006.16
2018-10-01T01:43:17.139Z,1006.22
2018-10-01T01:44:17.155Z,1006.15
2018-10-01T01:45:17.171Z,1006.11
2018-10-01T01:47:17.203Z,1006.1
2018-10-01T01:48:17.223Z,1006.08
2018-10-01T01:49:17.238Z,1006.06
2018-10-01T01:50:17.259Z,1006.05
2018-10-01T01:51:17.271Z,1006.05
2018-10-01T01:52:17.288Z,1006.05
2018-10-01T01:53:17.305Z,1006
2018-10-01T01:54:17.321Z,1006.03
2018-10-01T01:55:17.337Z,1006.03
2018-10-01T01:56:17.355Z,1006
2018-10-01T01:57:17.372Z,1006.02
2018-10-01T01:58:17.389Z,1006.01
2018-10-01T01:59:17.405Z,1005.99
2018-10-01T02:00:17.420Z,1005.98
2018-10-01T02:01:17.440Z,1005.98
2018-10-01T02:03:17.472Z,1006.03
2018-10-01T02:04:17.489Z,1006.02
2018-10-01T02:05:17.505Z,1006
2018-10-01T02:06:17.519Z,1006.01
2018-10-01T02:07:17.538Z,1005.98
2018-10-01T02:08:17.555Z,1006
2018-10-01T02:09:17.572Z,1005.99
2018-10-01T02:10:17.587Z,1005.96
2018-10-01T02:11:17.604Z,1005.97
2018-10-01T02:12:17.722Z,1005.97
2018-10-01T02:13:17.637Z,1005.98
2018-10-01T02:14:17.653Z,1005.95
2018-10-01T02:15:17.677Z,1005.94
2018-10-01T02:16:17.687Z,1005.92
2018-10-01T02:17:17.702Z,1005.97
2018-10-01T02:19:17.736Z,1005.91
2018-10-01T02:20:17.753Z,1005.96
2018-10-01T02:21:17.768Z,1005.88
2018-10-01T02:22:17.785Z,1005.94
2018-10-01T02:23:17.802Z,1005.97
2018-10-01T02:24:17.818Z,1005.91
2018-10-01T02:25:17.834Z,1005.93
2018-10-01T02:26:17.851Z,1005.88
2018-10-01T02:27:17.868Z,1005.93
2018-10-01T02:28:17.883Z,1005.87
2018-10-01T02:29:17.903Z,1005.9
2018-10-01T02:30:17.918Z,1005.87
2018-10-01T02:31:17.935Z,1005.88
2018-10-01T02:32:17.950Z,1005.85
2018-10-01T02:34:17.984Z,1005.91
2018-10-01T02:35:18.001Z,1005.92
2018-10-01T02:36:18.017Z,1005.92
2018-10-01T02:37:18.033Z,1005.92
2018-10-01T02:38:18.051Z,1005.87
2018-10-01T02:39:18.066Z,1005.87
2018-10-01T02:40:18.083Z,1005.87
2018-10-01T02:41:18.102Z,1005.89
2018-10-01T02:42:18.115Z,1005.9
2018-10-01T02:43:18.131Z,1005.87
2018-10-01T02:44:18.148Z,1005.89
2018-10-01T02:45:18.165Z,1005.91
2018-10-01T02:46:18.180Z,1005.99
2018-10-01T02:47:18.196Z,1006.07
2018-10-01T02:48:18.214Z,1006.03
2018-10-01T02:49:18.231Z,1005.94
2018-10-01T02:50:18.246Z,1005.99
2018-10-01T02:51:18.262Z,1006.04
2018-10-01T02:52:18.279Z,1005.97
2018-10-01T02:53:18.295Z,1006.02
2018-10-01T02:54:18.311Z,1006.01
2018-10-01T02:55:18.328Z,1006.02
2018-10-01T02:56:18.349Z,1006.03
2018-10-01T02:57:18.364Z,1005.99
2018-10-01T02:58:18.379Z,1006.02
2018-10-01T02:59:18.393Z,1005.94
2018-10-01T03:00:18.410Z,1005.91
2018-10-01T03:01:18.432Z,1005.92
2018-10-01T03:02:18.442Z,1005.93
2018-10-01T03:03:18.458Z,1005.92
2018-10-01T03:04:18.477Z,1005.92
2018-10-01T03:06:18.505Z,1005.9
2018-10-01T03:07:18.524Z,1005.91
2018-10-01T03:08:18.538Z,1005.89
2018-10-01T03:09:18.569Z,1005.85
2018-10-01T03:10:18.573Z,1005.79
2018-10-01T03:11:18.589Z,1005.77
2018-10-01T03:12:18.746Z,1005.74
2018-10-01T03:13:18.621Z,1005.72
2018-10-01T03:14:18.638Z,1005.7
2018-10-01T03:15:18.653Z,1005.68
2018-10-01T03:16:18.670Z,1005.67
2018-10-01T03:17:18.685Z,1005.63
2018-10-01T03:18:18.702Z,1005.6
2018-10-01T03:19:18.754Z,1005.58
2018-10-01T03:20:18.735Z,1005.58
2018-10-01T03:22:18.768Z,1005.58
2018-10-01T03:23:18.784Z,1005.57
2018-10-01T03:24:18.799Z,1005.59
2018-10-01T03:25:18.820Z,1005.62
2018-10-01T03:26:18.833Z,1005.57
2018-10-01T03:27:18.849Z,1005.63
2018-10-01T03:28:18.870Z,1005.57
2018-10-01T03:29:18.882Z,1005.58
2018-10-01T03:30:18.898Z,1005.56
2018-10-01T03:31:18.915Z,1005.57
2018-10-01T03:32:18.932Z,1005.58
2018-10-01T03:33:18.952Z,1005.59
2018-10-01T03:34:18.963Z,1005.58
2018-10-01T03:35:18.993Z,1005.6
2018-10-01T03:36:18.997Z,1005.63
2018-10-01T03:38:19.028Z,1005.63
2018-10-01T03:39:19.045Z,1005.65
2018-10-01T03:40:19.176Z,1005.62
2018-10-01T03:41:19.079Z,1005.64
2018-10-01T03:42:19.094Z,1005.62
2018-10-01T03:43:19.115Z,1005.62
2018-10-01T03:44:19.128Z,1005.61
2018-10-01T03:45:19.142Z,1005.62
2018-10-01T03:46:19.160Z,1005.6
2018-10-01T03:47:19.177Z,1005.62
2018-10-01T03:48:19.192Z,1005.62
2018-10-01T03:49:19.209Z,1005.64
2018-10-01T03:50:19.229Z,1005.63
2018-10-01T03:51:19.242Z,1005.67
2018-10-01T03:52:19.258Z,1005.66
2018-10-01T03:54:19.291Z,1005.69
2018-10-01T03:55:19.308Z,1005.69
2018-10-01T03:56:19.323Z,1005.7
2018-10-01T03:57:19.341Z,1005.68
2018-10-01T03:58:19.357Z,1005.69
2018-10-01T03:59:19.372Z,1005.69
2018-10-01T04:00:19.388Z,1005.66
2018-10-01T04:01:19.409Z,1005.65
2018-10-01T04:02:19.420Z,1005.63
2018-10-01T04:03:19.437Z,1005.64
2018-10-01T04:04:19.456Z,1005.63
2018-10-01T04:05:19.470Z,1005.63
2018-10-01T04:06:19.493Z,1005.68
2018-10-01T04:07:19.504Z,1005.66
2018-10-01T04:09:19.543Z,1005.7
2018-10-01T04:10:19.553Z,1005.64
2018-10-01T04:11:19.569Z,1005.67
2018-10-01T04:12:19.589Z,1005.65
2018-10-01T04:13:19.703Z,1005.65
2018-10-01T04:14:19.621Z,1005.66
2018-10-01T04:15:19.634Z,1005.65
2018-10-01T04:16:19.652Z,1005.63
2018-10-01T04:17:19.671Z,1005.61
2018-10-01T04:18:19.683Z,1005.65
2018-10-01T04:19:19.703Z,1005.66
2018-10-01T04:20:19.718Z,1005.64
2018-10-01T04:21:19.731Z,1005.64
2018-10-01T04:22:19.750Z,1005.68
2018-10-01T04:23:19.766Z,1005.66
2018-10-01T04:24:19.782Z,1005.64
2018-10-01T04:25:19.798Z,1005.66
2018-10-01T04:26:19.814Z,1005.62
2018-10-01T04:27:19.831Z,1005.62
2018-10-01T04:28:19.990Z,1005.61
2018-10-01T04:29:19.862Z,1005.6
2018-10-01T04:30:19.880Z,1005.64
2018-10-01T04:31:19.895Z,1005.59
2018-10-01T04:32:19.913Z,1005.58
2018-10-01T04:33:19.929Z,1005.56
2018-10-01T04:34:19.947Z,1005.56
2018-10-01T04:35:19.964Z,1005.54
2018-10-01T04:36:19.978Z,1005.55
2018-10-01T04:37:19.994Z,1005.55
2018-10-01T04:38:20.013Z,1005.47
2018-10-01T04:39:20.027Z,1005.48
2018-10-01T04:41:20.060Z,1005.47
2018-10-01T04:42:20.077Z,1005.47
2018-10-01T04:43:20.099Z,1005.46
2018-10-01T04:44:20.110Z,1005.46
2018-10-01T04:45:20.130Z,1005.45
2018-10-01T04:46:20.143Z,1005.44
2018-10-01T04:47:20.158Z,1005.48
2018-10-01T04:48:20.176Z,1005.46
2018-10-01T04:49:20.192Z,1005.48
2018-10-01T04:50:20.208Z,1005.52
2018-10-01T04:51:20.223Z,1005.55
2018-10-01T04:52:20.240Z,1005.59
2018-10-01T04:53:20.260Z,1005.62
2018-10-01T04:54:20.272Z,1005.59
2018-10-01T04:55:20.295Z,1005.59
2018-10-01T04:57:20.324Z,1005.66
2018-10-01T04:58:20.504Z,1005.66
2018-10-01T04:59:20.356Z,1005.66
2018-10-01T05:00:20.372Z,1005.6
2018-10-01T05:01:20.387Z,1005.58
2018-10-01T05:02:20.405Z,1005.58
2018-10-01T05:03:20.421Z,1005.59
2018-10-01T05:04:20.537Z,1005.59
2018-10-01T05:05:20.454Z,1005.63
2018-10-01T05:06:20.470Z,1005.63
2018-10-01T05:07:20.486Z,1005.64
2018-10-01T05:08:20.504Z,1005.65
2018-10-01T05:09:20.519Z,1005.65
2018-10-01T05:10:20.535Z,1005.61
2018-10-01T05:11:20.552Z,1005.61
2018-10-01T05:13:20.587Z,1005.63
2018-10-01T05:14:20.604Z,1005.64
2018-10-01T05:15:20.618Z,1005.68
2018-10-01T05:16:20.634Z,1005.69
2018-10-01T05:17:20.651Z,1005.68
2018-10-01T05:18:20.666Z,1005.69
2018-10-01T05:19:20.684Z,1005.71
2018-10-01T05:20:20.700Z,1005.67
2018-10-01T05:21:20.817Z,1005.71
2018-10-01T05:22:20.733Z,1005.71
2018-10-01T05:23:20.748Z,1005.74
2018-10-01T05:24:20.766Z,1005.74
2018-10-01T05:25:20.783Z,1005.7
2018-10-01T05:26:20.800Z,1005.75
2018-10-01T05:27:20.815Z,1005.73
2018-10-01T05:29:20.849Z,1005.7
2018-10-01T05:30:20.866Z,1005.69
2018-10-01T05:31:20.882Z,1005.66
2018-10-01T05:32:20.898Z,1005.68
2018-10-01T05:33:20.915Z,1005.66
2018-10-01T05:34:20.932Z,1005.67
2018-10-01T05:35:20.947Z,1005.65
2018-10-01T05:36:20.965Z,1005.68
2018-10-01T05:37:20.983Z,1005.69
2018-10-01T05:38:20.998Z,1005.69
2018-10-01T05:39:21.015Z,1005.66
2018-10-01T05:40:21.034Z,1005.66
2018-10-01T05:41:21.050Z,1005.7
2018-10-01T05:42:21.067Z,1005.71
2018-10-01T05:44:21.102Z,1005.73
2018-10-01T05:45:21.117Z,1005.71
2018-10-01T05:46:21.136Z,1005.74
2018-10-01T05:47:21.151Z,1005.73
2018-10-01T05:48:21.169Z,1005.7
2018-10-01T05:49:21.187Z,1005.74
2018-10-01T05:50:21.202Z,1005.75
2018-10-01T05:51:21.227Z,1005.77
2018-10-01T05:52:21.286Z,1005.76
2018-10-01T05:53:21.254Z,1005.73
2018-10-01T05:54:21.277Z,1005.67
2018-10-01T05:55:21.288Z,1005.49
2018-10-01T05:56:21.306Z,1005.36
2018-10-01T05:57:21.323Z,1005.28
2018-10-01T05:58:21.341Z,1005.36
2018-10-01T05:59:21.360Z,1005.35
2018-10-01T06:00:21.377Z,1005.29
2018-10-01T06:01:21.394Z,1005.37
2018-10-01T06:02:21.415Z,1005.43
2018-10-01T06:03:21.434Z,1005.33
2018-10-01T06:04:21.454Z,1005.34
2018-10-01T06:05:21.473Z,1005.31
2018-10-01T06:06:21.493Z,1005.38
2018-10-01T06:07:21.513Z,1005.34
2018-10-01T06:08:21.534Z,1005.44
2018-10-01T06:09:21.556Z,1005.45
2018-10-01T06:10:21.577Z,1005.48
2018-10-01T06:11:21.601Z,1005.6
2018-10-01T06:12:21.620Z,1005.59
2018-10-01T06:13:21.641Z,1005.73
2018-10-01T06:14:21.663Z,1005.83
2018-10-01T06:16:21.707Z,1005.77
2018-10-01T06:17:21.730Z,1005.85
2018-10-01T06:18:21.752Z,1005.94
2018-10-01T06:19:21.775Z,1006
2018-10-01T06:20:21.803Z,1005.99
2018-10-01T06:21:21.822Z,1005.97
2018-10-01T06:22:21.847Z,1005.98
2018-10-01T06:23:21.867Z,1006.12
2018-10-01T06:24:21.891Z,1006.19
2018-10-01T06:25:21.915Z,1006.21
2018-10-01T06:26:21.940Z,1006.25
2018-10-01T06:27:21.962Z,1006.26
2018-10-01T06:28:21.984Z,1006.34
2018-10-01T06:29:22.009Z,1006.4
2018-10-01T06:30:22.034Z,1006.4
2018-10-01T06:32:22.083Z,1006.52
2018-10-01T06:33:22.106Z,1006.48
2018-10-01T06:34:22.129Z,1006.48
2018-10-01T06:35:22.155Z,1006.52
2018-10-01T06:36:22.221Z,1006.56
2018-10-01T06:37:22.205Z,1006.51
2018-10-01T06:38:22.229Z,1006.52
2018-10-01T06:39:22.263Z,1006.52
2018-10-01T06:40:22.279Z,1006.53
2018-10-01T06:41:22.340Z,1006.57
2018-10-01T06:42:22.328Z,1006.64
2018-10-01T06:43:22.352Z,1006.67
2018-10-01T06:44:22.376Z,1006.66
2018-10-01T06:45:22.403Z,1006.71
2018-10-01T06:46:22.428Z,1006.58
2018-10-01T06:48:22.477Z,1006.46
2018-10-01T06:49:22.502Z,1006.43
2018-10-01T06:50:22.527Z,1006.4
2018-10-01T06:51:22.572Z,1006.39
2018-10-01T06:52:22.575Z,1006.39
2018-10-01T06:53:22.600Z,1006.37
2018-10-01T06:54:22.624Z,1006.38
2018-10-01T06:55:22.648Z,1006.38
2018-10-01T06:56:22.671Z,1006.45
2018-10-01T06:57:22.696Z,1006.42
2018-10-01T06:58:22.718Z,1006.39
2018-10-01T06:59:22.742Z,1006.41
2018-10-01T07:00:22.773Z,1006.42
2018-10-01T07:01:22.942Z,1006.5
2018-10-01T07:02:22.813Z,1006.52
2018-10-01T07:04:22.860Z,1006.45
2018-10-01T07:05:22.946Z,1006.45
2018-10-01T07:06:22.908Z,1006.53
2018-10-01T07:07:22.929Z,1006.48
2018-10-01T07:08:22.951Z,1006.52
2018-10-01T07:09:22.974Z,1006.5
2018-10-01T07:10:22.997Z,1006.58
2018-10-01T07:11:23.147Z,1006.65
2018-10-01T07:12:23.045Z,1006.65
2018-10-01T07:13:23.068Z,1006.71
2018-10-01T07:14:23.095Z,1006.72
2018-10-01T07:15:23.116Z,1006.69
2018-10-01T07:16:23.206Z,1006.65
2018-10-01T07:17:23.370Z,1006.65
2018-10-01T07:19:23.218Z,1006.62
2018-10-01T07:20:23.241Z,1006.61
2018-10-01T07:21:23.260Z,1006.58
2018-10-01T07:22:23.304Z,1006.62
2018-10-01T07:23:23.515Z,1006.64
2018-10-01T07:24:23.331Z,1006.63
2018-10-01T07:25:23.356Z,1006.58
2018-10-01T07:26:23.381Z,1006.54
2018-10-01T07:27:23.405Z,1006.55
2018-10-01T07:28:23.430Z,1006.56
2018-10-01T07:29:23.454Z,1006.54
2018-10-01T07:30:23.479Z,1006.49
2018-10-01T07:31:23.503Z,1006.47
2018-10-01T07:32:23.529Z,1006.52
2018-10-01T07:33:23.564Z,1006.56
2018-10-01T07:34:23.579Z,1006.51
2018-10-01T07:35:23.602Z,1006.49
2018-10-01T07:36:23.628Z,1006.5
2018-10-01T07:37:23.653Z,1006.55
2018-10-01T07:38:23.677Z,1006.57
2018-10-01T07:39:23.701Z,1006.52
2018-10-01T07:40:23.726Z,1006.53
2018-10-01T07:41:23.752Z,1006.53
2018-10-01T07:42:23.775Z,1006.54
2018-10-01T07:43:23.799Z,1006.54
2018-10-01T07:44:23.827Z,1006.54
2018-10-01T07:45:24.015Z,1006.55
2018-10-01T07:46:24.007Z,1006.49
2018-10-01T07:47:23.898Z,1006.51
2018-10-01T07:48:23.924Z,1006.51
2018-10-01T07:49:23.946Z,1006.46
2018-10-01T07:51:23.995Z,1006.43
2018-10-01T07:52:24.021Z,1006.39
2018-10-01T07:53:24.093Z,1006.41
2018-10-01T07:54:24.085Z,1006.42
2018-10-01T07:55:24.093Z,1006.42
2018-10-01T07:56:24.119Z,1006.46
2018-10-01T07:57:24.205Z,1006.49
2018-10-01T07:58:24.165Z,1006.51
2018-10-01T07:59:24.268Z,1006.52
2018-10-01T08:00:24.233Z,1006.53
2018-10-01T08:01:24.237Z,1006.58
2018-10-01T08:02:24.320Z,1006.57
2018-10-01T08:03:24.283Z,1006.57
2018-10-01T08:04:24.307Z,1006.58
2018-10-01T08:05:24.332Z,1006.53
2018-10-01T08:07:24.378Z,1006.58
2018-10-01T08:08:24.402Z,1006.6
2018-10-01T08:09:24.489Z,1006.57
2018-10-01T08:10:24.448Z,1006.57
2018-10-01T08:11:24.471Z,1006.56
2018-10-01T08:12:24.494Z,1006.57
2018-10-01T08:13:24.519Z,1006.57
2018-10-01T08:14:24.572Z,1006.64
2018-10-01T08:15:24.563Z,1006.63
2018-10-01T08:16:24.587Z,1006.64
2018-10-01T08:17:24.610Z,1006.67
2018-10-01T08:18:24.634Z,1006.64
2018-10-01T08:19:24.655Z,1006.68
2018-10-01T08:20:24.683Z,1006.68
2018-10-01T08:21:24.702Z,1006.72
2018-10-01T08:23:24.797Z,1006.8
2018-10-01T08:24:24.770Z,1006.8
2018-10-01T08:25:24.793Z,1006.8
2018-10-01T08:26:24.855Z,1006.82
2018-10-01T08:27:24.838Z,1006.82
2018-10-01T08:28:24.861Z,1006.85
2018-10-01T08:29:24.985Z,1006.79
2018-10-01T08:30:24.904Z,1006.83
2018-10-01T08:31:24.929Z,1006.94
2018-10-01T08:32:24.978Z,1006.94
2018-10-01T08:33:24.973Z,1006.93
2018-10-01T08:34:24.995Z,1006.92
2018-10-01T08:35:25.063Z,1006.85
2018-10-01T08:36:25.042Z,1006.94
2018-10-01T08:37:25.065Z,1006.95
2018-10-01T08:39:25.111Z,1006.95
2018-10-01T08:40:25.133Z,1006.87
2018-10-01T08:41:25.195Z,1006.97
2018-10-01T08:42:25.178Z,1007.01
2018-10-01T08:43:25.201Z,1006.98
2018-10-01T08:44:25.257Z,1006.94
2018-10-01T08:45:25.248Z,1006.96
2018-10-01T08:46:25.269Z,1006.93
2018-10-01T08:47:25.485Z,1006.97
2018-10-01T08:48:25.314Z,1006.97
2018-10-01T08:49:25.337Z,1006.94
2018-10-01T08:50:25.379Z,1006.98
2018-10-01T08:51:25.383Z,1006.99
2018-10-01T08:52:25.407Z,1006.97
2018-10-01T08:54:25.454Z,1006.97
2018-10-01T08:55:25.476Z,1006.98
2018-10-01T08:56:25.581Z,1006.94
2018-10-01T08:57:25.525Z,1006.93
2018-10-01T08:58:25.548Z,1006.92
2018-10-01T08:59:25.595Z,1006.94
2018-10-01T09:00:25.594Z,1006.95
2018-10-01T09:01:25.619Z,1006.98
2018-10-01T09:02:25.662Z,1006.96
2018-10-01T09:03:25.663Z,1006.93
2018-10-01T09:04:25.689Z,1006.91
2018-10-01T09:05:25.777Z,1006.9
2018-10-01T09:06:25.735Z,1006.86
2018-10-01T09:07:25.759Z,1006.87
2018-10-01T09:08:25.802Z,1006.87
2018-10-01T09:09:25.807Z,1006.88
2018-10-01T09:10:25.829Z,1006.88
2018-10-01T09:11:25.881Z,1006.9
2018-10-01T09:12:25.883Z,1006.91
2018-10-01T09:13:25.949Z,1006.91
2018-10-01T09:14:25.987Z,1006.96
2018-10-01T09:15:25.948Z,1006.97
2018-10-01T09:16:25.977Z,1007
2018-10-01T09:17:26.085Z,1006.94
2018-10-01T09:18:26.018Z,1006.96
2018-10-01T09:19:26.041Z,1006.98
2018-10-01T09:20:26.088Z,1006.95
2018-10-01T09:21:26.170Z,1006.94
2018-10-01T09:22:26.111Z,1006.9
2018-10-01T09:23:26.139Z,1006.93
2018-10-01T09:24:26.157Z,1006.95
2018-10-01T09:26:26.247Z,1006.9
2018-10-01T09:27:26.231Z,1006.9
2018-10-01T09:28:26.251Z,1006.91
2018-10-01T09:29:26.317Z,1006.98
2018-10-01T09:30:26.305Z,1006.89
2018-10-01T09:31:26.322Z,1006.9
2018-10-01T09:32:26.377Z,1006.87
2018-10-01T09:33:26.369Z,1006.92
2018-10-01T09:34:26.391Z,1006.93
2018-10-01T09:35:26.464Z,1006.95
2018-10-01T09:36:26.439Z,1006.97
2018-10-01T09:37:26.462Z,1006.97
2018-10-01T09:38:26.548Z,1006.95
2018-10-01T09:39:26.508Z,1006.97
2018-10-01T09:40:26.537Z,1006.99
2018-10-01T09:42:26.579Z,1006.94
2018-10-01T09:43:26.602Z,1007
2018-10-01T09:44:26.694Z,1006.98
2018-10-01T09:45:26.650Z,1006.98
2018-10-01T09:46:26.798Z,1006.95
2018-10-01T09:47:26.697Z,1006.95
2018-10-01T09:48:26.719Z,1006.95
2018-10-01T09:49:26.743Z,1007
2018-10-01T09:50:26.798Z,1006.97
2018-10-01T09:51:26.790Z,1006.98
2018-10-01T09:52:26.869Z,1006.97
2018-10-01T09:53:26.836Z,1006.97
2018-10-01T09:54:26.860Z,1006.91
2018-10-01T09:55:26.884Z,1006.89
2018-10-01T09:56:26.974Z,1006.88
2018-10-01T09:58:26.969Z,1006.88
2018-10-01T09:59:26.987Z,1006.85
2018-10-01T10:00:27.004Z,1006.81
2018-10-01T10:01:27.026Z,1006.82
2018-10-01T10:02:27.114Z,1006.81
2018-10-01T10:03:27.075Z,1006.83
2018-10-01T10:04:27.194Z,1006.81
2018-10-01T10:05:27.125Z,1006.83
2018-10-01T10:06:27.150Z,1006.87
2018-10-01T10:07:27.169Z,1006.81
2018-10-01T10:08:27.249Z,1006.86
2018-10-01T10:09:27.215Z,1006.86
2018-10-01T10:10:27.246Z,1006.86
2018-10-01T10:11:27.330Z,1006.82
2018-10-01T10:12:27.286Z,1006.79
2018-10-01T10:14:27.366Z,1006.85
2018-10-01T10:15:27.360Z,1006.86
2018-10-01T10:16:27.446Z,1006.87
2018-10-01T10:17:27.453Z,1006.89
2018-10-01T10:18:27.430Z,1006.87
2018-10-01T10:19:27.454Z,1006.87
2018-10-01T10:20:27.544Z,1006.92
2018-10-01T10:21:27.501Z,1006.88
2018-10-01T10:22:27.572Z,1006.91
2018-10-01T10:23:27.558Z,1006.91
2018-10-01T10:24:27.572Z,1006.91
2018-10-01T10:25:27.597Z,1006.92
2018-10-01T10:26:27.692Z,1006.86
2018-10-01T10:27:27.645Z,1006.85
2018-10-01T10:29:27.700Z,1006.82
2018-10-01T10:30:27.716Z,1006.85
2018-10-01T10:31:27.739Z,1006.84
2018-10-01T10:32:27.832Z,1006.85
2018-10-01T10:33:27.791Z,1006.81
2018-10-01T10:34:27.868Z,1006.85
2018-10-01T10:35:27.898Z,1006.81
2018-10-01T10:36:27.858Z,1006.87
2018-10-01T10:37:27.883Z,1006.9
2018-10-01T10:38:27.959Z,1006.88
2018-10-01T10:39:28.002Z,1006.91
2018-10-01T10:40:27.954Z,1006.88
2018-10-01T10:41:27.977Z,1006.84
2018-10-01T10:42:28.000Z,1006.88
2018-10-01T10:43:28.025Z,1006.84
2018-10-01T10:44:28.088Z,1006.85
2018-10-01T10:45:28.070Z,1006.84
2018-10-01T10:46:28.093Z,1006.86
2018-10-01T10:47:28.119Z,1006.87
2018-10-01T10:48:28.141Z,1006.9
2018-10-01T10:49:28.164Z,1006.88
2018-10-01T10:50:28.205Z,1006.91
2018-10-01T10:51:28.213Z,1006.94
2018-10-01T10:52:28.235Z,1006.93
2018-10-01T10:53:28.259Z,1006.93
2018-10-01T10:54:28.283Z,1006.95
2018-10-01T10:55:28.307Z,1006.92
2018-10-01T10:56:28.371Z,1006.91
2018-10-01T10:57:28.354Z,1006.95
2018-10-01T10:58:28.376Z,1006.92
2018-10-01T10:59:28.400Z,1006.93
2018-10-01T11:01:28.446Z,1006.93
2018-10-01T11:02:28.533Z,1006.85
2018-10-01T11:03:28.492Z,1006.9
2018-10-01T11:04:28.516Z,1006.9
2018-10-01T11:05:28.541Z,1006.91
2018-10-01T11:06:28.564Z,1006.91
2018-10-01T11:07:28.587Z,1006.93
2018-10-01T11:08:28.624Z,1006.91
2018-10-01T11:09:28.634Z,1006.92
2018-10-01T11:10:28.657Z,1006.93
2018-10-01T11:11:28.680Z,1006.92
2018-10-01T11:12:28.703Z,1006.94
2018-10-01T11:13:28.728Z,1006.95
2018-10-01T11:14:28.828Z,1006.97
2018-10-01T11:15:28.800Z,1006.94
2018-10-01T11:17:28.891Z,1006.93
2018-10-01T11:18:28.903Z,1006.9
2018-10-01T11:19:28.897Z,1006.89
2018-10-01T11:20:29.000Z,1006.86
2018-10-01T11:21:28.949Z,1006.89
2018-10-01T11:22:28.947Z,1006.89
2018-10-01T11:23:28.980Z,1006.92
2018-10-01T11:24:28.985Z,1006.93
2018-10-01T11:25:29.206Z,1006.95
2018-10-01T11:26:29.031Z,1006.94
2018-10-01T11:27:29.081Z,1006.93
2018-10-01T11:28:29.082Z,1006.95
2018-10-01T11:29:29.101Z,1006.92
2018-10-01T11:30:29.226Z,1006.95
2018-10-01T11:31:29.200Z,1006.92
2018-10-01T11:33:29.266Z,1006.87
2018-10-01T11:34:29.288Z,1006.95
2018-10-01T11:35:29.415Z,1006.88
2018-10-01T11:36:29.265Z,1006.89
2018-10-01T11:37:29.288Z,1006.88
2018-10-01T11:38:29.311Z,1006.91
2018-10-01T11:39:29.400Z,1006.87
2018-10-01T11:40:29.357Z,1006.86
2018-10-01T11:41:29.381Z,1006.91
2018-10-01T11:42:29.404Z,1006.91
2018-10-01T11:43:29.428Z,1006.87
2018-10-01T11:44:29.550Z,1006.83
2018-10-01T11:45:29.531Z,1006.89
2018-10-01T11:46:29.496Z,1006.9
2018-10-01T11:47:29.519Z,1006.92
2018-10-01T11:49:29.568Z,1006.92
2018-10-01T11:50:29.592Z,1006.91
2018-10-01T11:51:29.677Z,1006.91
2018-10-01T11:52:29.639Z,1006.94
2018-10-01T11:53:29.659Z,1006.98
2018-10-01T11:54:29.725Z,1006.88
2018-10-01T11:55:29.705Z,1006.91
2018-10-01T11:56:29.728Z,1006.98
2018-10-01T11:57:29.771Z,1006.94
2018-10-01T11:58:29.777Z,1007.02
2018-10-01T11:59:29.796Z,1007.03
2018-10-01T12:00:29.820Z,1007.05
2018-10-01T12:01:29.843Z,1007.03
2018-10-01T12:02:29.869Z,1007.02
2018-10-01T12:04:29.912Z,1007.02
2018-10-01T12:05:29.934Z,1006.98
2018-10-01T12:06:29.957Z,1007.02
2018-10-01T12:07:29.981Z,1006.98
2018-10-01T12:08:30.003Z,1007
2018-10-01T12:09:30.124Z,1007.02
2018-10-01T12:10:30.077Z,1007.03
2018-10-01T12:11:30.071Z,1006.99
2018-10-01T12:12:30.097Z,1007.03
2018-10-01T12:13:30.117Z,1007.07
2018-10-01T12:14:30.140Z,1007.07
2018-10-01T12:15:30.254Z,1007.09
2018-10-01T12:16:30.185Z,1007.08
2018-10-01T12:17:30.212Z,1007.1
2018-10-01T12:18:30.232Z,1007.05
2018-10-01T12:19:30.255Z,1007.08
2018-10-01T12:20:30.276Z,1007.03
2018-10-01T12:21:30.354Z,1007.04
2018-10-01T12:22:30.321Z,1007.02
2018-10-01T12:23:30.343Z,1007.02
2018-10-01T12:24:30.366Z,1007.07
2018-10-01T12:25:30.389Z,1007.02
2018-10-01T12:26:30.412Z,1007.02
2018-10-01T12:27:30.444Z,1007.05
2018-10-01T12:28:30.460Z,1007.08
2018-10-01T12:29:30.480Z,1007.05
2018-10-01T12:30:30.504Z,1007.13
2018-10-01T12:31:30.523Z,1007.06
2018-10-01T12:32:30.548Z,1007.14
2018-10-01T12:33:30.640Z,1007.09
2018-10-01T12:34:30.592Z,1007.15
2018-10-01T12:36:30.638Z,1007.16
2018-10-01T12:37:30.661Z,1007.16
2018-10-01T12:38:30.683Z,1007.16
2018-10-01T12:39:30.708Z,1007.16
2018-10-01T12:40:30.728Z,1007.19
2018-10-01T12:41:30.751Z,1007.16
2018-10-01T12:42:30.772Z,1007.17
2018-10-01T12:43:30.798Z,1007.19
2018-10-01T12:44:30.818Z,1007.13
2018-10-01T12:45:30.891Z,1007.22
2018-10-01T12:46:30.863Z,1007.17
2018-10-01T12:47:30.885Z,1007.18